sensor_id;sensor_type;location;lat;lon;timestamp;P1;durP1;ratioP1;P2;durP2;ratioP2
9447;SDS011;4762;48.128;11.376;2024-03-07T00:00:09;7.50;;;6.67;;
9447;SDS011;4762;48.128;11.376;2024-03-07T00:02:19;10.37;;;7.10;;
9447;SDS011;4762;48.128;11.376;2024-03-07T00:04:23;12.00;;;7.30;;
9447;SDS011;4762;48.128;11.376;2024-03-07T00:06:25;9.00;;;6.87;;
9447;SDS011;4762;48.128;11.376;2024-03-07T00:08:27;10.00;;;7.83;;
9447;SDS011;4762;48.128;11.376;2024-03-07T00:10:29;12.53;;;8.70;;
9447;SDS011;4762;48.128;11.376;2024-03-07T00:12:32;13.80;;;7.83;;
9447;SDS011;4762;48.128;11.376;2024-03-07T00:14:36;10.23;;;6.93;;
9447;SDS011;4762;48.128;11.376;2024-03-07T00:16:38;10.43;;;7.33;;
9447;SDS011;4762;48.128;11.376;2024-03-07T00:18:40;12.67;;;7.50;;
9447;SDS011;4762;48.128;11.376;2024-03-07T00:20:42;14.17;;;7.20;;
9447;SDS011;4762;48.128;11.376;2024-03-07T00:22:45;9.40;;;6.93;;
9447;SDS011;4762;48.128;11.376;2024-03-07T00:24:47;9.40;;;7.60;;
9447;SDS011;4762;48.128;11.376;2024-03-07T00:26:49;13.93;;;8.40;;
9447;SDS011;4762;48.128;11.376;2024-03-07T00:28:52;11.50;;;8.30;;
9447;SDS011;4762;48.128;11.376;2024-03-07T00:30:54;15.03;;;8.20;;
9447;SDS011;4762;48.128;11.376;2024-03-07T00:32:56;8.97;;;6.90;;
9447;SDS011;4762;48.128;11.376;2024-03-07T00:34:58;10.97;;;7.77;;
9447;SDS011;4762;48.128;11.376;2024-03-07T00:37:00;11.00;;;8.20;;
9447;SDS011;4762;48.128;11.376;2024-03-07T00:39:03;12.67;;;7.97;;
9447;SDS011;4762;48.128;11.376;2024-03-07T00:41:05;12.83;;;9.00;;
9447;SDS011;4762;48.128;11.376;2024-03-07T00:43:07;19.83;;;9.43;;
9447;SDS011;4762;48.128;11.376;2024-03-07T00:45:09;12.97;;;8.83;;
9447;SDS011;4762;48.128;11.376;2024-03-07T00:47:12;13.50;;;8.00;;
9447;SDS011;4762;48.128;11.376;2024-03-07T00:49:15;12.43;;;8.77;;
9447;SDS011;4762;48.128;11.376;2024-03-07T00:51:17;12.07;;;7.97;;
9447;SDS011;4762;48.128;11.376;2024-03-07T00:53:19;11.57;;;8.70;;
9447;SDS011;4762;48.128;11.376;2024-03-07T00:55:21;16.40;;;10.37;;
9447;SDS011;4762;48.128;11.376;2024-03-07T00:57:23;18.60;;;9.90;;
9447;SDS011;4762;48.128;11.376;2024-03-07T00:59:26;18.77;;;10.03;;
9447;SDS011;4762;48.128;11.376;2024-03-07T01:01:28;15.13;;;9.20;;
9447;SDS011;4762;48.128;11.376;2024-03-07T01:03:30;15.23;;;9.83;;
9447;SDS011;4762;48.128;11.376;2024-03-07T01:05:32;17.93;;;8.60;;
9447;SDS011;4762;48.128;11.376;2024-03-07T01:07:35;12.90;;;8.40;;
9447;SDS011;4762;48.128;11.376;2024-03-07T01:09:37;14.80;;;10.50;;
9447;SDS011;4762;48.128;11.376;2024-03-07T01:11:41;14.13;;;10.33;;
9447;SDS011;4762;48.128;11.376;2024-03-07T01:13:43;16.93;;;10.00;;
9447;SDS011;4762;48.128;11.376;2024-03-07T01:15:45;19.43;;;10.43;;
9447;SDS011;4762;48.128;11.376;2024-03-07T01:17:47;15.57;;;10.63;;
9447;SDS011;4762;48.128;11.376;2024-03-07T01:19:49;16.60;;;10.43;;
9447;SDS011;4762;48.128;11.376;2024-03-07T01:21:52;17.37;;;10.20;;
9447;SDS011;4762;48.128;11.376;2024-03-07T01:23:55;17.87;;;9.33;;
9447;SDS011;4762;48.128;11.376;2024-03-07T01:25:58;17.03;;;10.10;;
9447;SDS011;4762;48.128;11.376;2024-03-07T01:28:00;17.57;;;11.30;;
9447;SDS011;4762;48.128;11.376;2024-03-07T01:30:02;17.87;;;10.50;;
9447;SDS011;4762;48.128;11.376;2024-03-07T01:32:05;16.53;;;10.97;;
9447;SDS011;4762;48.128;11.376;2024-03-07T01:34:08;18.13;;;11.63;;
9447;SDS011;4762;48.128;11.376;2024-03-07T01:36:11;23.77;;;12.07;;
9447;SDS011;4762;48.128;11.376;2024-03-07T01:38:14;15.97;;;11.10;;
9447;SDS011;4762;48.128;11.376;2024-03-07T01:40:16;17.10;;;10.83;;
9447;SDS011;4762;48.128;11.376;2024-03-07T01:42:18;15.67;;;11.03;;
9447;SDS011;4762;48.128;11.376;2024-03-07T01:44:20;15.37;;;9.57;;
9447;SDS011;4762;48.128;11.376;2024-03-07T01:46:23;17.20;;;10.60;;
9447;SDS011;4762;48.128;11.376;2024-03-07T01:48:27;18.20;;;10.20;;
9447;SDS011;4762;48.128;11.376;2024-03-07T01:50:28;16.47;;;9.27;;
9447;SDS011;4762;48.128;11.376;2024-03-07T01:52:31;13.63;;;8.80;;
9447;SDS011;4762;48.128;11.376;2024-03-07T01:54:34;18.73;;;11.07;;
9447;SDS011;4762;48.128;11.376;2024-03-07T01:56:36;16.43;;;9.70;;
9447;SDS011;4762;48.128;11.376;2024-03-07T01:58:38;22.30;;;10.93;;
9447;SDS011;4762;48.128;11.376;2024-03-07T02:00:40;17.83;;;10.40;;
9447;SDS011;4762;48.128;11.376;2024-03-07T02:02:42;14.83;;;9.27;;
9447;SDS011;4762;48.128;11.376;2024-03-07T02:04:45;17.33;;;10.27;;
9447;SDS011;4762;48.128;11.376;2024-03-07T02:06:47;17.60;;;11.97;;
9447;SDS011;4762;48.128;11.376;2024-03-07T02:08:49;17.17;;;12.13;;
9447;SDS011;4762;48.128;11.376;2024-03-07T02:10:51;16.70;;;11.33;;
9447;SDS011;4762;48.128;11.376;2024-03-07T02:12:54;21.63;;;10.90;;
9447;SDS011;4762;48.128;11.376;2024-03-07T02:14:57;22.27;;;11.00;;
9447;SDS011;4762;48.128;11.376;2024-03-07T02:16:59;14.97;;;10.40;;
9447;SDS011;4762;48.128;11.376;2024-03-07T02:19:01;20.90;;;10.20;;
9447;SDS011;4762;48.128;11.376;2024-03-07T02:21:07;18.60;;;12.70;;
9447;SDS011;4762;48.128;11.376;2024-03-07T02:23:09;23.67;;;12.63;;
9447;SDS011;4762;48.128;11.376;2024-03-07T02:25:11;20.07;;;11.93;;
9447;SDS011;4762;48.128;11.376;2024-03-07T02:27:14;22.20;;;13.33;;
9447;SDS011;4762;48.128;11.376;2024-03-07T02:29:16;21.27;;;12.83;;
9447;SDS011;4762;48.128;11.376;2024-03-07T02:31:18;16.33;;;10.50;;
9447;SDS011;4762;48.128;11.376;2024-03-07T02:33:20;16.47;;;11.10;;
9447;SDS011;4762;48.128;11.376;2024-03-07T02:35:23;16.70;;;11.70;;
9447;SDS011;4762;48.128;11.376;2024-03-07T02:37:25;27.33;;;11.30;;
9447;SDS011;4762;48.128;11.376;2024-03-07T02:39:27;21.53;;;12.30;;
9447;SDS011;4762;48.128;11.376;2024-03-07T02:41:30;19.77;;;11.47;;
9447;SDS011;4762;48.128;11.376;2024-03-07T02:43:32;20.50;;;12.63;;
9447;SDS011;4762;48.128;11.376;2024-03-07T02:45:34;16.37;;;11.80;;
9447;SDS011;4762;48.128;11.376;2024-03-07T02:47:37;20.63;;;12.00;;
9447;SDS011;4762;48.128;11.376;2024-03-07T02:49:39;21.17;;;14.20;;
9447;SDS011;4762;48.128;11.376;2024-03-07T02:51:41;17.40;;;11.47;;
9447;SDS011;4762;48.128;11.376;2024-03-07T02:53:44;22.50;;;12.93;;
9447;SDS011;4762;48.128;11.376;2024-03-07T02:55:46;22.73;;;11.07;;
9447;SDS011;4762;48.128;11.376;2024-03-07T02:57:48;17.13;;;11.73;;
9447;SDS011;4762;48.128;11.376;2024-03-07T02:59:50;18.53;;;11.40;;
9447;SDS011;4762;48.128;11.376;2024-03-07T03:02:03;18.23;;;11.20;;
9447;SDS011;4762;48.128;11.376;2024-03-07T03:07:07;16.40;;;10.63;;
9447;SDS011;4762;48.128;11.376;2024-03-07T03:09:42;21.07;;;13.30;;
9447;SDS011;4762;48.128;11.376;2024-03-07T03:14:59;17.30;;;12.73;;
9447;SDS011;4762;48.128;11.376;2024-03-07T03:17:51;19.20;;;12.80;;
9447;SDS011;4762;48.128;11.376;2024-03-07T03:22:48;24.70;;;13.27;;
9447;SDS011;4762;48.128;11.376;2024-03-07T03:27:48;19.60;;;12.57;;
9447;SDS011;4762;48.128;11.376;2024-03-07T03:35:30;20.80;;;13.73;;
9447;SDS011;4762;48.128;11.376;2024-03-07T03:37:33;30.53;;;13.97;;
9447;SDS011;4762;48.128;11.376;2024-03-07T03:40:08;28.07;;;14.60;;
9447;SDS011;4762;48.128;11.376;2024-03-07T03:47:20;21.10;;;14.27;;
9447;SDS011;4762;48.128;11.376;2024-03-07T03:57:17;25.77;;;14.93;;
9447;SDS011;4762;48.128;11.376;2024-03-07T04:02:37;21.43;;;13.77;;
9447;SDS011;4762;48.128;11.376;2024-03-07T04:05:09;28.00;;;15.57;;
9447;SDS011;4762;48.128;11.376;2024-03-07T04:07:27;32.43;;;15.67;;
9447;SDS011;4762;48.128;11.376;2024-03-07T04:12:04;28.47;;;15.67;;
9447;SDS011;4762;48.128;11.376;2024-03-07T04:14:07;26.67;;;17.30;;
9447;SDS011;4762;48.128;11.376;2024-03-07T04:16:12;25.10;;;15.00;;
9447;SDS011;4762;48.128;11.376;2024-03-07T04:18:16;26.33;;;15.87;;
9447;SDS011;4762;48.128;11.376;2024-03-07T04:20:21;34.27;;;21.27;;
9447;SDS011;4762;48.128;11.376;2024-03-07T04:22:25;30.97;;;17.30;;
9447;SDS011;4762;48.128;11.376;2024-03-07T04:24:27;31.00;;;16.33;;
9447;SDS011;4762;48.128;11.376;2024-03-07T04:26:30;22.60;;;16.60;;
9447;SDS011;4762;48.128;11.376;2024-03-07T04:28:34;32.13;;;17.93;;
9447;SDS011;4762;48.128;11.376;2024-03-07T04:30:37;27.87;;;16.50;;
9447;SDS011;4762;48.128;11.376;2024-03-07T04:32:39;28.67;;;17.20;;
9447;SDS011;4762;48.128;11.376;2024-03-07T04:34:43;31.00;;;15.93;;
9447;SDS011;4762;48.128;11.376;2024-03-07T04:36:46;27.73;;;16.83;;
9447;SDS011;4762;48.128;11.376;2024-03-07T04:38:50;28.60;;;16.70;;
9447;SDS011;4762;48.128;11.376;2024-03-07T04:40:52;28.80;;;17.40;;
9447;SDS011;4762;48.128;11.376;2024-03-07T04:42:55;23.83;;;16.73;;
9447;SDS011;4762;48.128;11.376;2024-03-07T04:44:59;22.77;;;15.97;;
9447;SDS011;4762;48.128;11.376;2024-03-07T04:47:02;26.63;;;16.43;;
9447;SDS011;4762;48.128;11.376;2024-03-07T04:49:05;28.60;;;17.40;;
9447;SDS011;4762;48.128;11.376;2024-03-07T04:51:07;33.37;;;18.60;;
9447;SDS011;4762;48.128;11.376;2024-03-07T04:53:09;27.53;;;18.53;;
9447;SDS011;4762;48.128;11.376;2024-03-07T04:55:12;30.27;;;17.53;;
9447;SDS011;4762;48.128;11.376;2024-03-07T04:57:15;36.10;;;18.70;;
9447;SDS011;4762;48.128;11.376;2024-03-07T04:59:20;31.50;;;19.60;;
9447;SDS011;4762;48.128;11.376;2024-03-07T05:01:23;47.97;;;20.63;;
9447;SDS011;4762;48.128;11.376;2024-03-07T05:03:26;34.50;;;18.67;;
9447;SDS011;4762;48.128;11.376;2024-03-07T05:05:30;48.00;;;21.50;;
9447;SDS011;4762;48.128;11.376;2024-03-07T05:07:32;31.27;;;20.73;;
9447;SDS011;4762;48.128;11.376;2024-03-07T05:09:35;39.40;;;21.93;;
9447;SDS011;4762;48.128;11.376;2024-03-07T05:11:37;28.63;;;19.43;;
9447;SDS011;4762;48.128;11.376;2024-03-07T05:13:39;39.03;;;22.30;;
9447;SDS011;4762;48.128;11.376;2024-03-07T05:15:43;32.87;;;20.90;;
9447;SDS011;4762;48.128;11.376;2024-03-07T05:17:47;37.87;;;20.90;;
9447;SDS011;4762;48.128;11.376;2024-03-07T05:19:50;36.27;;;19.93;;
9447;SDS011;4762;48.128;11.376;2024-03-07T05:21:55;37.23;;;21.80;;
9447;SDS011;4762;48.128;11.376;2024-03-07T05:23:58;40.83;;;20.97;;
9447;SDS011;4762;48.128;11.376;2024-03-07T05:26:02;29.43;;;18.50;;
9447;SDS011;4762;48.128;11.376;2024-03-07T05:28:06;28.50;;;19.03;;
9447;SDS011;4762;48.128;11.376;2024-03-07T05:30:10;30.43;;;18.97;;
9447;SDS011;4762;48.128;11.376;2024-03-07T05:32:20;40.60;;;17.73;;
9447;SDS011;4762;48.128;11.376;2024-03-07T05:34:24;37.07;;;21.37;;
9447;SDS011;4762;48.128;11.376;2024-03-07T05:36:26;31.13;;;17.97;;
9447;SDS011;4762;48.128;11.376;2024-03-07T05:38:29;28.63;;;17.77;;
9447;SDS011;4762;48.128;11.376;2024-03-07T05:40:31;34.40;;;20.93;;
9447;SDS011;4762;48.128;11.376;2024-03-07T05:42:33;33.10;;;20.97;;
9447;SDS011;4762;48.128;11.376;2024-03-07T05:44:35;33.90;;;19.93;;
9447;SDS011;4762;48.128;11.376;2024-03-07T05:46:38;37.77;;;21.00;;
9447;SDS011;4762;48.128;11.376;2024-03-07T05:48:43;33.53;;;20.10;;
9447;SDS011;4762;48.128;11.376;2024-03-07T05:50:47;32.27;;;19.70;;
9447;SDS011;4762;48.128;11.376;2024-03-07T05:52:49;36.27;;;19.13;;
9447;SDS011;4762;48.128;11.376;2024-03-07T05:54:51;29.00;;;19.60;;
9447;SDS011;4762;48.128;11.376;2024-03-07T05:56:54;34.00;;;21.40;;
9447;SDS011;4762;48.128;11.376;2024-03-07T05:58:57;41.77;;;19.93;;
9447;SDS011;4762;48.128;11.376;2024-03-07T06:01:00;36.50;;;20.50;;
9447;SDS011;4762;48.128;11.376;2024-03-07T06:03:04;28.37;;;20.23;;
9447;SDS011;4762;48.128;11.376;2024-03-07T06:05:06;33.17;;;22.00;;
9447;SDS011;4762;48.128;11.376;2024-03-07T06:07:08;37.53;;;20.97;;
9447;SDS011;4762;48.128;11.376;2024-03-07T06:09:13;33.77;;;19.47;;
9447;SDS011;4762;48.128;11.376;2024-03-07T06:11:18;39.03;;;22.10;;
9447;SDS011;4762;48.128;11.376;2024-03-07T06:13:21;38.60;;;21.47;;
9447;SDS011;4762;48.128;11.376;2024-03-07T06:15:23;37.87;;;21.50;;
9447;SDS011;4762;48.128;11.376;2024-03-07T06:17:26;40.27;;;23.90;;
9447;SDS011;4762;48.128;11.376;2024-03-07T06:19:28;35.10;;;21.33;;
9447;SDS011;4762;48.128;11.376;2024-03-07T06:21:30;32.67;;;21.70;;
9447;SDS011;4762;48.128;11.376;2024-03-07T06:23:33;37.47;;;23.17;;
9447;SDS011;4762;48.128;11.376;2024-03-07T06:25:35;47.43;;;21.57;;
9447;SDS011;4762;48.128;11.376;2024-03-07T06:27:38;40.43;;;22.33;;
9447;SDS011;4762;48.128;11.376;2024-03-07T06:29:41;30.07;;;19.50;;
9447;SDS011;4762;48.128;11.376;2024-03-07T06:31:44;42.40;;;22.03;;
9447;SDS011;4762;48.128;11.376;2024-03-07T06:33:48;33.50;;;20.80;;
9447;SDS011;4762;48.128;11.376;2024-03-07T06:35:50;40.53;;;22.27;;
9447;SDS011;4762;48.128;11.376;2024-03-07T06:37:54;31.70;;;21.53;;
9447;SDS011;4762;48.128;11.376;2024-03-07T06:39:56;45.97;;;22.43;;
9447;SDS011;4762;48.128;11.376;2024-03-07T06:41:59;30.77;;;21.10;;
9447;SDS011;4762;48.128;11.376;2024-03-07T06:44:02;43.87;;;23.47;;
9447;SDS011;4762;48.128;11.376;2024-03-07T06:46:05;36.73;;;20.37;;
9447;SDS011;4762;48.128;11.376;2024-03-07T06:48:08;39.37;;;21.00;;
9447;SDS011;4762;48.128;11.376;2024-03-07T06:50:11;30.30;;;19.00;;
9447;SDS011;4762;48.128;11.376;2024-03-07T06:52:13;36.20;;;20.63;;
9447;SDS011;4762;48.128;11.376;2024-03-07T06:54:17;37.00;;;21.70;;
9447;SDS011;4762;48.128;11.376;2024-03-07T06:56:21;32.90;;;20.87;;
9447;SDS011;4762;48.128;11.376;2024-03-07T06:58:23;39.80;;;21.10;;
9447;SDS011;4762;48.128;11.376;2024-03-07T07:00:26;36.00;;;21.90;;
9447;SDS011;4762;48.128;11.376;2024-03-07T07:02:29;38.83;;;22.27;;
9447;SDS011;4762;48.128;11.376;2024-03-07T07:04:32;37.90;;;21.83;;
9447;SDS011;4762;48.128;11.376;2024-03-07T07:06:34;43.13;;;22.30;;
9447;SDS011;4762;48.128;11.376;2024-03-07T07:08:37;41.63;;;20.57;;
9447;SDS011;4762;48.128;11.376;2024-03-07T07:10:39;27.10;;;19.40;;
9447;SDS011;4762;48.128;11.376;2024-03-07T07:12:42;32.60;;;21.87;;
9447;SDS011;4762;48.128;11.376;2024-03-07T07:14:46;36.37;;;21.50;;
9447;SDS011;4762;48.128;11.376;2024-03-07T07:16:48;38.33;;;22.10;;
9447;SDS011;4762;48.128;11.376;2024-03-07T07:18:51;35.87;;;22.87;;
9447;SDS011;4762;48.128;11.376;2024-03-07T07:20:53;40.80;;;24.23;;
9447;SDS011;4762;48.128;11.376;2024-03-07T07:22:57;29.37;;;20.97;;
9447;SDS011;4762;48.128;11.376;2024-03-07T07:25:00;41.43;;;22.20;;
9447;SDS011;4762;48.128;11.376;2024-03-07T07:27:02;46.77;;;22.23;;
9447;SDS011;4762;48.128;11.376;2024-03-07T07:29:06;43.13;;;22.63;;
9447;SDS011;4762;48.128;11.376;2024-03-07T07:31:09;37.37;;;22.40;;
9447;SDS011;4762;48.128;11.376;2024-03-07T07:33:12;33.93;;;21.53;;
9447;SDS011;4762;48.128;11.376;2024-03-07T07:35:14;38.40;;;21.53;;
9447;SDS011;4762;48.128;11.376;2024-03-07T07:37:18;37.43;;;21.80;;
9447;SDS011;4762;48.128;11.376;2024-03-07T07:39:20;32.23;;;20.43;;
9447;SDS011;4762;48.128;11.376;2024-03-07T07:41:24;30.93;;;21.17;;
9447;SDS011;4762;48.128;11.376;2024-03-07T07:43:26;42.90;;;23.37;;
9447;SDS011;4762;48.128;11.376;2024-03-07T07:45:29;36.97;;;22.20;;
9447;SDS011;4762;48.128;11.376;2024-03-07T07:47:31;50.27;;;24.50;;
9447;SDS011;4762;48.128;11.376;2024-03-07T07:49:34;44.37;;;22.93;;
9447;SDS011;4762;48.128;11.376;2024-03-07T07:51:36;39.77;;;23.47;;
9447;SDS011;4762;48.128;11.376;2024-03-07T07:53:38;32.23;;;21.17;;
9447;SDS011;4762;48.128;11.376;2024-03-07T07:55:41;36.33;;;22.23;;
9447;SDS011;4762;48.128;11.376;2024-03-07T07:57:51;39.93;;;21.80;;
9447;SDS011;4762;48.128;11.376;2024-03-07T07:59:54;29.33;;;20.10;;
9447;SDS011;4762;48.128;11.376;2024-03-07T08:09:41;33.27;;;20.53;;
9447;SDS011;4762;48.128;11.376;2024-03-07T08:11:43;40.93;;;22.27;;
9447;SDS011;4762;48.128;11.376;2024-03-07T08:13:46;43.97;;;20.63;;
9447;SDS011;4762;48.128;11.376;2024-03-07T08:15:48;49.90;;;22.77;;
9447;SDS011;4762;48.128;11.376;2024-03-07T08:17:50;38.00;;;20.00;;
9447;SDS011;4762;48.128;11.376;2024-03-07T08:19:52;27.27;;;19.80;;
9447;SDS011;4762;48.128;11.376;2024-03-07T08:21:56;46.50;;;22.47;;
9447;SDS011;4762;48.128;11.376;2024-03-07T08:23:59;39.63;;;21.40;;
9447;SDS011;4762;48.128;11.376;2024-03-07T08:26:01;48.87;;;22.27;;
9447;SDS011;4762;48.128;11.376;2024-03-07T08:28:03;40.30;;;22.50;;
9447;SDS011;4762;48.128;11.376;2024-03-07T08:30:07;40.67;;;22.20;;
9447;SDS011;4762;48.128;11.376;2024-03-07T08:32:10;36.70;;;21.23;;
9447;SDS011;4762;48.128;11.376;2024-03-07T08:34:12;36.53;;;21.80;;
9447;SDS011;4762;48.128;11.376;2024-03-07T08:36:15;40.97;;;20.87;;
9447;SDS011;4762;48.128;11.376;2024-03-07T08:38:17;45.40;;;24.47;;
9447;SDS011;4762;48.128;11.376;2024-03-07T08:40:21;38.50;;;22.20;;
9447;SDS011;4762;48.128;11.376;2024-03-07T08:42:24;31.93;;;20.53;;
9447;SDS011;4762;48.128;11.376;2024-03-07T08:44:26;39.50;;;22.03;;
9447;SDS011;4762;48.128;11.376;2024-03-07T08:46:28;50.00;;;24.83;;
9447;SDS011;4762;48.128;11.376;2024-03-07T08:48:32;39.40;;;21.47;;
9447;SDS011;4762;48.128;11.376;2024-03-07T08:50:35;35.87;;;21.30;;
9447;SDS011;4762;48.128;11.376;2024-03-07T08:52:37;40.53;;;20.40;;
9447;SDS011;4762;48.128;11.376;2024-03-07T08:54:39;55.53;;;22.27;;
9447;SDS011;4762;48.128;11.376;2024-03-07T08:56:43;36.87;;;21.97;;
9447;SDS011;4762;48.128;11.376;2024-03-07T08:58:46;40.13;;;21.80;;
9447;SDS011;4762;48.128;11.376;2024-03-07T09:00:48;33.20;;;19.73;;
9447;SDS011;4762;48.128;11.376;2024-03-07T09:02:51;32.27;;;21.10;;
9447;SDS011;4762;48.128;11.376;2024-03-07T09:04:54;44.03;;;21.03;;
9447;SDS011;4762;48.128;11.376;2024-03-07T09:06:56;43.43;;;20.40;;
9447;SDS011;4762;48.128;11.376;2024-03-07T09:08:59;29.40;;;19.20;;
9447;SDS011;4762;48.128;11.376;2024-03-07T09:11:01;41.40;;;21.83;;
9447;SDS011;4762;48.128;11.376;2024-03-07T09:13:04;41.80;;;21.23;;
9447;SDS011;4762;48.128;11.376;2024-03-07T09:15:07;51.00;;;21.30;;
9447;SDS011;4762;48.128;11.376;2024-03-07T09:17:12;41.63;;;20.63;;
9447;SDS011;4762;48.128;11.376;2024-03-07T09:19:15;37.90;;;22.13;;
9447;SDS011;4762;48.128;11.376;2024-03-07T09:21:18;32.53;;;20.63;;
9447;SDS011;4762;48.128;11.376;2024-03-07T09:23:20;42.87;;;22.13;;
9447;SDS011;4762;48.128;11.376;2024-03-07T09:25:23;35.07;;;20.97;;
9447;SDS011;4762;48.128;11.376;2024-03-07T09:27:26;35.57;;;20.87;;
9447;SDS011;4762;48.128;11.376;2024-03-07T09:29:29;33.00;;;20.30;;
9447;SDS011;4762;48.128;11.376;2024-03-07T09:31:32;36.57;;;20.97;;
9447;SDS011;4762;48.128;11.376;2024-03-07T09:33:34;38.17;;;20.17;;
9447;SDS011;4762;48.128;11.376;2024-03-07T09:35:36;35.80;;;20.40;;
9447;SDS011;4762;48.128;11.376;2024-03-07T09:37:40;32.83;;;19.50;;
9447;SDS011;4762;48.128;11.376;2024-03-07T09:39:43;38.50;;;20.10;;
9447;SDS011;4762;48.128;11.376;2024-03-07T09:41:46;47.47;;;22.93;;
9447;SDS011;4762;48.128;11.376;2024-03-07T09:43:48;39.97;;;22.37;;
9447;SDS011;4762;48.128;11.376;2024-03-07T09:45:51;32.10;;;19.73;;
9447;SDS011;4762;48.128;11.376;2024-03-07T09:47:53;37.30;;;22.70;;
9447;SDS011;4762;48.128;11.376;2024-03-07T09:49:56;42.07;;;22.40;;
9447;SDS011;4762;48.128;11.376;2024-03-07T09:51:58;29.20;;;20.73;;
9447;SDS011;4762;48.128;11.376;2024-03-07T09:54:00;34.60;;;22.50;;
9447;SDS011;4762;48.128;11.376;2024-03-07T09:56:03;39.57;;;21.50;;
9447;SDS011;4762;48.128;11.376;2024-03-07T09:58:06;37.87;;;21.07;;
9447;SDS011;4762;48.128;11.376;2024-03-07T10:00:08;36.50;;;21.90;;
9447;SDS011;4762;48.128;11.376;2024-03-07T10:02:12;33.07;;;20.27;;
9447;SDS011;4762;48.128;11.376;2024-03-07T10:04:16;35.50;;;21.50;;
9447;SDS011;4762;48.128;11.376;2024-03-07T10:06:20;27.47;;;19.67;;
9447;SDS011;4762;48.128;11.376;2024-03-07T10:08:24;32.40;;;19.10;;
9447;SDS011;4762;48.128;11.376;2024-03-07T10:10:27;35.00;;;20.97;;
9447;SDS011;4762;48.128;11.376;2024-03-07T10:12:30;29.83;;;18.60;;
9447;SDS011;4762;48.128;11.376;2024-03-07T10:14:32;28.43;;;18.77;;
9447;SDS011;4762;48.128;11.376;2024-03-07T10:16:35;33.27;;;19.10;;
9447;SDS011;4762;48.128;11.376;2024-03-07T10:18:42;34.13;;;21.03;;
9447;SDS011;4762;48.128;11.376;2024-03-07T10:20:44;34.97;;;19.93;;
9447;SDS011;4762;48.128;11.376;2024-03-07T10:22:48;35.67;;;21.30;;
9447;SDS011;4762;48.128;11.376;2024-03-07T10:24:55;25.03;;;17.70;;
9447;SDS011;4762;48.128;11.376;2024-03-07T10:26:59;34.50;;;19.97;;
9447;SDS011;4762;48.128;11.376;2024-03-07T10:29:01;28.30;;;19.70;;
9447;SDS011;4762;48.128;11.376;2024-03-07T10:31:03;35.90;;;19.47;;
9447;SDS011;4762;48.128;11.376;2024-03-07T10:33:09;30.10;;;17.03;;
9447;SDS011;4762;48.128;11.376;2024-03-07T10:35:13;30.97;;;17.80;;
9447;SDS011;4762;48.128;11.376;2024-03-07T10:37:16;30.37;;;16.87;;
9447;SDS011;4762;48.128;11.376;2024-03-07T10:39:19;35.83;;;18.30;;
9447;SDS011;4762;48.128;11.376;2024-03-07T10:41:23;28.27;;;18.70;;
9447;SDS011;4762;48.128;11.376;2024-03-07T10:43:26;27.20;;;18.40;;
9447;SDS011;4762;48.128;11.376;2024-03-07T10:45:29;30.00;;;18.13;;
9447;SDS011;4762;48.128;11.376;2024-03-07T10:47:32;24.37;;;15.83;;
9447;SDS011;4762;48.128;11.376;2024-03-07T10:49:36;29.37;;;17.30;;
9447;SDS011;4762;48.128;11.376;2024-03-07T10:51:40;29.17;;;17.97;;
9447;SDS011;4762;48.128;11.376;2024-03-07T10:53:46;26.40;;;16.47;;
9447;SDS011;4762;48.128;11.376;2024-03-07T10:56:26;34.50;;;18.57;;
9447;SDS011;4762;48.128;11.376;2024-03-07T10:58:33;31.03;;;17.93;;
9447;SDS011;4762;48.128;11.376;2024-03-07T11:00:29;27.60;;;14.97;;
9447;SDS011;4762;48.128;11.376;2024-03-07T11:02:33;30.60;;;16.23;;
9447;SDS011;4762;48.128;11.376;2024-03-07T11:04:37;28.67;;;16.07;;
9447;SDS011;4762;48.128;11.376;2024-03-07T11:06:40;26.17;;;15.40;;
9447;SDS011;4762;48.128;11.376;2024-03-07T11:08:44;23.47;;;15.17;;
9447;SDS011;4762;48.128;11.376;2024-03-07T11:10:47;23.43;;;14.03;;
9447;SDS011;4762;48.128;11.376;2024-03-07T11:12:52;33.33;;;14.83;;
9447;SDS011;4762;48.128;11.376;2024-03-07T11:14:54;29.10;;;15.13;;
9447;SDS011;4762;48.128;11.376;2024-03-07T11:16:58;27.23;;;15.90;;
9447;SDS011;4762;48.128;11.376;2024-03-07T11:26:04;25.23;;;13.80;;
9447;SDS011;4762;48.128;11.376;2024-03-07T11:28:13;23.30;;;14.10;;
9447;SDS011;4762;48.128;11.376;2024-03-07T11:30:16;19.50;;;13.37;;
9447;SDS011;4762;48.128;11.376;2024-03-07T11:32:19;21.70;;;12.67;;
9447;SDS011;4762;48.128;11.376;2024-03-07T11:34:22;20.73;;;13.33;;
9447;SDS011;4762;48.128;11.376;2024-03-07T11:38:45;22.70;;;12.90;;
9447;SDS011;4762;48.128;11.376;2024-03-07T11:40:50;25.63;;;14.63;;
9447;SDS011;4762;48.128;11.376;2024-03-07T11:42:56;15.43;;;12.03;;
9447;SDS011;4762;48.128;11.376;2024-03-07T11:45:03;20.67;;;12.30;;
9447;SDS011;4762;48.128;11.376;2024-03-07T11:47:07;23.70;;;14.80;;
9447;SDS011;4762;48.128;11.376;2024-03-07T11:49:13;21.10;;;13.43;;
9447;SDS011;4762;48.128;11.376;2024-03-07T11:51:17;30.00;;;13.33;;
9447;SDS011;4762;48.128;11.376;2024-03-07T11:53:18;19.10;;;13.17;;
9447;SDS011;4762;48.128;11.376;2024-03-07T11:55:21;27.13;;;15.57;;
9447;SDS011;4762;48.128;11.376;2024-03-07T11:57:23;25.03;;;14.70;;
9447;SDS011;4762;48.128;11.376;2024-03-07T11:59:41;20.27;;;13.90;;
9447;SDS011;4762;48.128;11.376;2024-03-07T12:01:53;21.80;;;13.43;;
9447;SDS011;4762;48.128;11.376;2024-03-07T12:03:56;20.63;;;12.23;;
9447;SDS011;4762;48.128;11.376;2024-03-07T12:05:58;21.43;;;13.17;;
9447;SDS011;4762;48.128;11.376;2024-03-07T12:08:03;20.50;;;13.17;;
9447;SDS011;4762;48.128;11.376;2024-03-07T12:10:06;25.70;;;15.00;;
9447;SDS011;4762;48.128;11.376;2024-03-07T12:12:09;20.67;;;13.33;;
9447;SDS011;4762;48.128;11.376;2024-03-07T12:14:11;20.33;;;12.97;;
9447;SDS011;4762;48.128;11.376;2024-03-07T12:16:15;29.83;;;16.17;;
9447;SDS011;4762;48.128;11.376;2024-03-07T12:18:18;22.70;;;13.23;;
9447;SDS011;4762;48.128;11.376;2024-03-07T12:20:20;23.30;;;13.80;;
9447;SDS011;4762;48.128;11.376;2024-03-07T12:22:26;25.60;;;14.33;;
9447;SDS011;4762;48.128;11.376;2024-03-07T12:24:29;22.60;;;10.17;;
9447;SDS011;4762;48.128;11.376;2024-03-07T12:26:33;19.70;;;12.23;;
9447;SDS011;4762;48.128;11.376;2024-03-07T12:28:35;27.70;;;13.10;;
9447;SDS011;4762;48.128;11.376;2024-03-07T12:32:50;24.57;;;11.57;;
9447;SDS011;4762;48.128;11.376;2024-03-07T12:34:54;17.43;;;10.80;;
9447;SDS011;4762;48.128;11.376;2024-03-07T12:36:56;22.30;;;13.00;;
9447;SDS011;4762;48.128;11.376;2024-03-07T12:38:59;23.23;;;13.27;;
9447;SDS011;4762;48.128;11.376;2024-03-07T12:41:05;23.30;;;13.00;;
9447;SDS011;4762;48.128;11.376;2024-03-07T12:43:12;17.90;;;12.97;;
9447;SDS011;4762;48.128;11.376;2024-03-07T12:45:17;22.60;;;12.60;;
9447;SDS011;4762;48.128;11.376;2024-03-07T12:47:23;29.27;;;13.30;;
9447;SDS011;4762;48.128;11.376;2024-03-07T12:49:28;21.97;;;12.33;;
9447;SDS011;4762;48.128;11.376;2024-03-07T12:51:31;23.90;;;13.10;;
9447;SDS011;4762;48.128;11.376;2024-03-07T12:53:36;21.53;;;13.03;;
9447;SDS011;4762;48.128;11.376;2024-03-07T12:55:39;16.70;;;11.73;;
9447;SDS011;4762;48.128;11.376;2024-03-07T12:57:44;20.97;;;12.17;;
9447;SDS011;4762;48.128;11.376;2024-03-07T12:59:48;17.83;;;11.93;;
9447;SDS011;4762;48.128;11.376;2024-03-07T13:01:50;18.17;;;12.47;;
9447;SDS011;4762;48.128;11.376;2024-03-07T13:03:53;22.97;;;11.87;;
9447;SDS011;4762;48.128;11.376;2024-03-07T13:05:56;18.97;;;11.87;;
9447;SDS011;4762;48.128;11.376;2024-03-07T13:07:57;17.93;;;11.50;;
9447;SDS011;4762;48.128;11.376;2024-03-07T13:09:59;24.20;;;12.53;;